KRDG/RDG METAR and TAF weather

Enter ICAO airport designator
Station Type Date Time Source
KRDG METAR 2021/03/07 08:54 UTC NOAA

KRDG 070854Z AUTO 02004KT 10SM FEW049 M02/M09 A3025 RMK AO2 SLP251 T10171089 53008 $


Station Type Date Time Source
KRDG Decoded METAR 2021/03/07 08:54 UTC NOAA

READING REGIONAL AIRPORT, PA, United States (KRDG) 40-22N 075-58W 109M
Mar 07, 2021 - 03:54 AM EST / 2021.03.07 0854 UTC
Wind: from the NNE (020 degrees) at 5 MPH (4 KT):0
Visibility: 10 mile(s):0
Sky conditions: mostly clear
Temperature: 28.9 F (-1.7 C)
Windchill: 23 F (-5 C):1
Dew Point: 16.0 F (-8.9 C)
Relative Humidity: 57%
Pressure (altimeter): 30.25 in. Hg (1024 hPa)
Pressure tendency: 0.02 inches (0.8 hPa) higher than three hours ago
ob: KRDG 070854Z AUTO 02004KT 10SM FEW049 M02/M09 A3025 RMK AO2 SLP251 T10171089 53008
cycle: 9

Station Type Date Time Source
KRDG TAF 2021/03/07 06:39 UTC NOAA

TAF KRDG 070536Z 0706/0806 35009KT P6SM OVC050
FM070800 VRB04KT P6SM SCT060
FM071400 32010KT P6SM FEW060
FM080000 33005KT P6SM FEW250

Example: see airport list